Time;durP1;ratioP1;P1;durP2;ratioP2;P2;SDS_P1;SDS_P2;PMS_P1;PMS_P2;Temp;Humidity;BMP_temperature;BMP_pressure;BME280_temperature;BME280_humidity;BME280_pressure;Samples;Min_cycle;Max_cycle;Signal;HPM_P1;HPM_P2
2021/12/21 00:00:46;;;;;;;0.20;0.10;;;;;;;-2.29;98.54;101299.16;5052462;28;20514;-51
2021/12/21 00:03:14;;;;;;;0.20;0.10;;;;;;;-2.42;98.99;101295.19;5060277;28;20453;-50
2021/12/21 00:05:41;;;;;;;0.20;0.10;;;;;;;-2.41;98.60;101294.38;5056467;28;20853;-51
2021/12/21 00:08:10;;;;;;;0.20;0.10;;;;;;;-2.59;99.70;101302.31;5055249;28;20451;-50
2021/12/21 00:10:39;;;;;;;0.20;0.10;;;;;;;-2.58;100.00;101295.41;5050996;28;20453;-52
2021/12/21 00:13:22;;;;;;;0.20;0.10;;;;;;;-2.80;100.00;101293.63;5038086;28;20451;-51
2021/12/21 00:18:25;;;;;;;0.20;0.10;;;;;;;-2.71;99.66;101292.31;5054895;28;20497;-51
2021/12/21 00:25:56;;;;;;;0.20;0.10;;;;;;;-2.70;100.00;101288.00;5051343;28;20463;-51
2021/12/21 00:28:24;;;;;;;0.20;0.10;;;;;;;-2.78;100.00;101279.84;5054672;28;20507;-51
2021/12/21 00:30:52;;;;;;;0.20;0.10;;;;;;;-2.69;100.00;101285.44;5045062;28;20451;-51
2021/12/21 00:33:18;;;;;;;0.20;0.10;;;;;;;-2.59;100.00;101289.31;5053755;28;20492;-50
2021/12/21 00:35:45;;;;;;;0.20;0.10;;;;;;;-2.53;100.00;101278.25;5050460;28;20495;-50
2021/12/21 00:38:12;;;;;;;0.20;0.20;;;;;;;-2.54;100.00;101281.69;5056030;28;20951;-51
2021/12/21 00:40:38;;;;;;;0.20;0.10;;;;;;;-2.72;99.76;101287.03;5059245;28;20455;-50
2021/12/21 00:43:05;;;;;;;0.20;0.10;;;;;;;-2.76;99.74;101285.13;5057012;28;20519;-51
2021/12/21 00:45:32;;;;;;;0.20;0.10;;;;;;;-2.72;99.82;101282.72;5057610;28;21022;-52
2021/12/21 00:47:59;;;;;;;0.20;0.10;;;;;;;-2.67;100.00;101276.81;5040859;28;20482;-51
2021/12/21 00:50:25;;;;;;;0.20;0.10;;;;;;;-2.58;99.55;101270.28;5046599;28;20482;-50
2021/12/21 00:52:53;;;;;;;0.20;0.10;;;;;;;-2.60;98.97;101265.84;5060321;28;20998;-51
2021/12/21 00:55:22;;;;;;;0.20;0.10;;;;;;;-2.65;98.74;101265.63;5056386;28;20544;-50
2021/12/21 00:57:49;;;;;;;0.20;0.10;;;;;;;-2.80;98.57;101265.91;5052670;28;20959;-51
2021/12/21 01:00:18;;;;;;;0.20;0.10;;;;;;;-2.81;98.59;101264.13;5058660;28;20451;-50
2021/12/21 01:02:45;;;;;;;0.20;0.10;;;;;;;-2.63;98.19;101268.28;5058125;28;20491;-51
2021/12/21 01:05:22;;;;;;;0.20;0.10;;;;;;;-2.85;98.57;101270.03;5045023;28;20455;-50
2021/12/21 01:07:52;;;;;;;0.20;0.10;;;;;;;-2.99;98.50;101260.78;5054476;28;20453;-52
2021/12/21 01:12:52;;;;;;;0.20;0.10;;;;;;;-2.85;99.38;101258.75;5050370;28;20964;-49
2021/12/21 01:15:41;;;;;;;0.20;0.10;;;;;;;-2.86;98.97;101256.97;5051023;28;20537;-50
2021/12/21 01:18:19;;;;;;;0.20;0.10;;;;;;;-3.21;99.58;101256.38;5048710;28;20505;-50
2021/12/21 01:20:53;;;;;;;0.20;0.10;;;;;;;-3.23;99.82;101259.75;5055598;28;20453;-49
2021/12/21 01:28:39;;;;;;;0.20;0.10;;;;;;;-3.21;99.25;101255.50;5045725;28;20487;-50
2021/12/21 01:31:24;;;;;;;0.20;0.10;;;;;;;-3.36;100.00;101259.22;5052433;28;20487;-50
2021/12/21 01:41:55;;;;;;;0.20;0.10;;;;;;;-3.04;99.17;101254.47;5053304;28;20958;-51
2021/12/21 01:49:52;;;;;;;0.20;0.10;;;;;;;-3.40;100.00;101249.53;5044822;28;20811;-50
2021/12/21 01:52:22;;;;;;;0.20;0.10;;;;;;;-3.17;100.00;101253.09;5034431;28;20474;-51
2021/12/21 01:54:50;;;;;;;0.20;0.10;;;;;;;-3.29;98.97;101253.47;5055973;28;20477;-51
2021/12/21 01:57:17;;;;;;;0.20;0.10;;;;;;;-3.22;98.83;101249.41;5050347;28;20484;-51
2021/12/21 01:59:45;;;;;;;0.20;0.10;;;;;;;-3.20;99.35;101250.34;5030911;28;20458;-50
2021/12/21 02:02:14;;;;;;;0.20;0.10;;;;;;;-3.32;98.83;101244.63;5049153;28;20577;-51
2021/12/21 02:04:41;;;;;;;0.20;0.10;;;;;;;-3.51;98.68;101248.16;5057750;28;20459;-51
2021/12/21 02:07:09;;;;;;;0.20;0.10;;;;;;;-3.32;98.94;101235.13;5054239;28;20503;-50
2021/12/21 02:09:39;;;;;;;0.20;0.10;;;;;;;-3.49;99.01;101246.53;5055968;28;20455;-51
2021/12/21 02:12:17;;;;;;;0.20;0.10;;;;;;;-3.51;99.92;101249.88;5043379;28;20456;-50
2021/12/21 02:14:54;;;;;;;0.20;0.10;;;;;;;-3.51;99.04;101253.38;5047923;28;20519;-50
2021/12/21 02:19:57;;;;;;;1.03;1.03;;;;;;;-3.47;99.48;101243.97;5055214;28;20901;-50
2021/12/21 02:22:26;;;;;;;0.20;0.10;;;;;;;-3.36;100.00;101238.44;5048900;28;21958;-51
2021/12/21 02:25:20;;;;;;;0.20;0.20;;;;;;;-3.39;98.67;101240.91;5054744;28;20458;-50
2021/12/21 02:27:54;;;;;;;0.20;0.10;;;;;;;-3.48;99.00;101231.81;5049086;28;20878;-51
2021/12/21 02:30:22;;;;;;;0.20;0.10;;;;;;;-3.41;99.74;101234.75;5041297;28;20517;-50
2021/12/21 02:32:49;;;;;;;0.30;0.30;;;;;;;-3.41;99.26;101228.69;5052391;28;20455;-51
2021/12/21 02:35:18;;;;;;;0.20;0.10;;;;;;;-3.40;99.37;101233.94;5052915;28;21030;-51
2021/12/21 02:37:45;;;;;;;0.20;0.10;;;;;;;-3.33;99.36;101224.66;5041328;28;20526;-49
2021/12/21 02:40:12;;;;;;;0.20;0.10;;;;;;;-3.44;99.51;101226.81;5060739;28;20476;-49
2021/12/21 02:42:38;;;;;;;0.20;0.10;;;;;;;-3.38;99.38;101228.78;5053922;28;20470;-49
2021/12/21 02:45:06;;;;;;;0.20;0.10;;;;;;;-3.35;98.69;101222.00;5060028;28;20462;-48
2021/12/21 02:47:33;;;;;;;0.20;0.10;;;;;;;-3.30;99.15;101230.88;5047225;28;20827;-52
2021/12/21 02:49:59;;;;;;;0.20;0.10;;;;;;;-3.33;98.41;101224.66;5064476;28;20455;-49
2021/12/21 02:52:26;;;;;;;0.20;0.10;;;;;;;-3.43;98.62;101225.09;5059189;28;20501;-49
2021/12/21 02:54:52;;;;;;;0.20;0.10;;;;;;;-3.38;98.27;101224.50;5050933;28;20962;-48
2021/12/21 02:57:19;;;;;;;0.20;0.10;;;;;;;-3.32;98.21;101226.44;5061222;28;20490;-49
2021/12/21 02:59:46;;;;;;;0.20;0.10;;;;;;;-3.38;98.79;101223.59;5060517;28;20450;-49
2021/12/21 03:02:12;;;;;;;0.20;0.10;;;;;;;-3.66;98.43;101224.13;5048051;28;20477;-49
2021/12/21 03:04:43;;;;;;;0.20;0.10;;;;;;;-3.76;98.92;101229.72;5057023;28;20477;-49
2021/12/21 03:09:56;;;;;;;1.50;1.50;;;;;;;-3.42;99.43;101224.31;5055191;28;20458;-49
2021/12/21 03:14:51;;;;;;;0.20;0.10;;;;;;;-3.43;99.51;101228.59;5059995;28;20490;-54
2021/12/21 03:17:19;;;;;;;0.20;0.10;;;;;;;-3.67;99.92;101230.16;5059858;28;20492;-49
2021/12/21 03:19:46;;;;;;;0.20;0.10;;;;;;;-3.77;98.41;101238.34;5055768;28;20505;-49
2021/12/21 03:22:14;;;;;;;0.20;0.10;;;;;;;-3.78;98.85;101228.78;5064690;28;20449;-48
2021/12/21 03:24:43;;;;;;;0.20;0.10;;;;;;;-3.70;99.85;101241.28;5060809;28;20490;-49
2021/12/21 03:27:11;;;;;;;0.20;0.10;;;;;;;-3.72;99.83;101242.91;5055054;28;20978;-49
2021/12/21 03:29:38;;;;;;;0.20;0.10;;;;;;;-3.78;99.03;101239.16;5055799;28;20520;-49
2021/12/21 03:32:05;;;;;;;0.20;0.10;;;;;;;-3.81;98.86;101236.44;5050664;28;21027;-49
2021/12/21 03:34:31;;;;;;;0.20;0.10;;;;;;;-3.89;99.16;101234.38;5045614;28;20513;-48
2021/12/21 03:36:58;;;;;;;0.30;0.20;;;;;;;-3.92;99.35;101226.47;5049685;28;20861;-48
2021/12/21 03:39:25;;;;;;;0.20;0.10;;;;;;;-3.88;99.37;101232.66;5056767;28;20454;-49
2021/12/21 03:41:57;;;;;;;0.20;0.10;;;;;;;-3.85;99.68;101226.72;5060803;28;20513;-50
2021/12/21 03:44:25;;;;;;;0.20;0.10;;;;;;;-3.83;98.30;101227.69;5055386;28;20494;-48
2021/12/21 03:46:54;;;;;;;0.20;0.10;;;;;;;-3.88;98.27;101224.88;5047743;28;20503;-49
2021/12/21 03:52:01;;;;;;;0.20;0.10;;;;;;;-3.80;97.94;101218.31;5050703;28;20451;-48
2021/12/21 03:54:27;;;;;;;0.20;0.10;;;;;;;-3.70;97.66;101227.38;5052976;28;20504;-52
2021/12/21 03:56:54;;;;;;;0.20;0.10;;;;;;;-3.75;97.82;101228.91;5060080;28;20895;-52
2021/12/21 03:59:21;;;;;;;0.33;0.30;;;;;;;-4.11;97.78;101228.13;5059355;28;20480;-52
2021/12/21 04:01:49;;;;;;;0.20;0.10;;;;;;;-4.17;97.66;101218.38;5055000;28;20882;-52
2021/12/21 04:04:19;;;;;;;0.20;0.10;;;;;;;-4.07;98.22;101222.28;5057092;28;20878;-52
2021/12/21 04:06:46;;;;;;;0.20;0.10;;;;;;;-4.00;99.76;101216.53;5026760;28;20471;-50
2021/12/21 04:09:13;;;;;;;0.20;0.10;;;;;;;-4.02;98.91;101210.41;5059584;28;20443;-52
2021/12/21 04:11:40;;;;;;;0.20;0.10;;;;;;;-4.11;98.50;101212.56;5055264;28;20473;-52
2021/12/21 04:14:07;;;;;;;0.20;0.10;;;;;;;-4.18;99.21;101211.41;5063338;28;20485;-52
2021/12/21 04:16:34;;;;;;;0.87;0.87;;;;;;;-4.03;99.22;101201.72;5059382;28;20972;-52
2021/12/21 04:19:01;;;;;;;0.20;0.10;;;;;;;-3.93;98.30;101218.59;5052760;28;20947;-51
2021/12/21 04:21:28;;;;;;;0.20;0.10;;;;;;;-4.05;98.93;101210.25;5050850;28;20458;-52
2021/12/21 04:23:55;;;;;;;0.20;0.10;;;;;;;-3.98;99.19;101210.59;5059890;28;20454;-50
2021/12/21 04:26:22;;;;;;;0.30;0.10;;;;;;;-4.09;98.14;101217.03;5050602;28;20495;-51
2021/12/21 04:28:49;;;;;;;0.20;0.10;;;;;;;-4.09;98.21;101209.25;5055182;28;20489;-52
2021/12/21 04:31:15;;;;;;;0.20;0.20;;;;;;;-4.07;98.07;101211.91;5055818;28;20446;-52
2021/12/21 04:33:43;;;;;;;0.20;0.10;;;;;;;-4.14;99.20;101217.63;5045863;28;20452;-52
2021/12/21 04:36:11;;;;;;;0.20;0.10;;;;;;;-4.20;98.70;101208.75;5047689;28;20915;-51
2021/12/21 04:38:43;;;;;;;0.20;0.10;;;;;;;-4.30;98.28;101210.84;5044380;28;20509;-51
2021/12/21 04:41:26;;;;;;;0.20;0.10;;;;;;;-4.52;99.32;101207.28;5057802;28;20466;-51
2021/12/21 04:43:56;;;;;;;0.20;0.20;;;;;;;-4.30;99.34;101203.06;5052414;28;20451;-52
2021/12/21 04:46:24;;;;;;;0.20;0.10;;;;;;;-4.38;99.62;101205.34;5043412;28;20462;-51
2021/12/21 04:48:52;;;;;;;0.20;0.10;;;;;;;-4.31;99.41;101217.75;5058461;28;20481;-51
2021/12/21 04:51:19;;;;;;;0.20;0.10;;;;;;;-4.38;98.67;101220.00;5056571;28;20445;-52
2021/12/21 04:53:46;;;;;;;0.87;0.87;;;;;;;-4.50;99.53;101216.03;5024718;28;20455;-52
2021/12/21 04:56:13;;;;;;;0.20;0.10;;;;;;;-4.59;98.61;101205.22;5034341;28;20534;-52
2021/12/21 04:58:40;;;;;;;0.20;0.10;;;;;;;-4.52;99.76;101207.28;5046565;28;20463;-52
2021/12/21 05:01:07;;;;;;;0.20;0.10;;;;;;;-4.42;100.00;101202.50;5056813;28;20455;-53
2021/12/21 05:03:33;;;;;;;0.20;0.10;;;;;;;-4.33;99.42;101201.22;5052458;28;20451;-51
2021/12/21 05:06:00;;;;;;;0.20;0.10;;;;;;;-4.30;100.00;101198.78;5063826;28;20467;-53
2021/12/21 05:08:32;;;;;;;0.20;0.10;;;;;;;-4.35;99.92;101204.59;5058252;28;20501;-52
2021/12/21 05:11:03;;;;;;;0.20;0.10;;;;;;;-4.33;99.41;101202.94;5054726;28;20458;-52
2021/12/21 05:13:33;;;;;;;0.20;0.10;;;;;;;-4.29;99.47;101204.84;5063823;28;20450;-52
2021/12/21 05:16:01;;;;;;;0.20;0.10;;;;;;;-4.17;98.90;101203.69;5059405;28;20486;-53
2021/12/21 05:18:28;;;;;;;0.20;0.10;;;;;;;-4.43;98.43;101200.72;5046990;28;20452;-52
2021/12/21 05:20:54;;;;;;;0.20;0.10;;;;;;;-4.42;99.39;101203.38;5059136;28;20511;-52
2021/12/21 05:23:21;;;;;;;0.20;0.10;;;;;;;-4.41;99.04;101204.28;5047472;28;20955;-52
2021/12/21 05:25:48;;;;;;;0.30;0.30;;;;;;;-4.46;99.62;101214.44;5057730;28;20954;-51
2021/12/21 05:28:15;;;;;;;0.50;0.50;;;;;;;-4.51;98.20;101209.06;5052701;28;20451;-52
2021/12/21 05:30:43;;;;;;;0.20;0.17;;;;;;;-4.36;99.34;101215.78;5041515;28;20506;-52
2021/12/21 05:33:10;;;;;;;0.20;0.10;;;;;;;-4.52;99.62;101216.78;5055762;28;20452;-52
2021/12/21 05:35:37;;;;;;;0.20;0.20;;;;;;;-4.57;99.10;101232.09;5043151;28;20530;-52
2021/12/21 05:38:06;;;;;;;0.20;0.10;;;;;;;-4.58;99.86;101225.13;5045352;28;20452;-52
2021/12/21 05:40:40;;;;;;;0.20;0.10;;;;;;;-4.80;99.24;101218.06;5045564;28;20536;-52
2021/12/21 05:43:09;;;;;;;0.20;0.10;;;;;;;-4.47;99.95;101218.75;5062300;28;20503;-52
2021/12/21 05:45:36;;;;;;;0.30;0.20;;;;;;;-4.47;98.82;101220.47;5062786;28;20516;-52
2021/12/21 05:48:04;;;;;;;0.20;0.10;;;;;;;-4.43;98.14;101221.47;5056172;28;20499;-52
2021/12/21 05:50:31;;;;;;;0.20;0.10;;;;;;;-4.37;99.09;101208.81;5061941;28;20509;-52
2021/12/21 05:52:58;;;;;;;0.20;0.10;;;;;;;-4.45;98.53;101208.44;5066877;28;20477;-52
2021/12/21 05:55:24;;;;;;;0.20;0.10;;;;;;;-4.44;98.99;101211.94;5063857;28;20986;-52
2021/12/21 05:57:52;;;;;;;0.20;0.10;;;;;;;-4.58;98.86;101208.69;5054517;28;20489;-52
2021/12/21 06:00:28;;;;;;;0.20;0.10;;;;;;;-4.64;99.27;101216.19;5059848;28;20484;-52
2021/12/21 06:02:55;;;;;;;0.20;0.10;;;;;;;-4.61;99.06;101219.81;5063211;28;20447;-52
2021/12/21 06:05:23;;;;;;;0.20;0.10;;;;;;;-4.72;99.70;101207.16;5049281;28;20468;-52
2021/12/21 06:07:52;;;;;;;0.20;0.10;;;;;;;-4.64;100.00;101211.91;5040347;28;20452;-51
2021/12/21 06:10:28;;;;;;;0.20;0.10;;;;;;;-4.67;100.00;101219.50;5018843;28;20451;-51
2021/12/21 06:25:08;;;;;;;2.20;2.00;;;;;;;-4.29;99.04;101218.72;5058411;28;20527;-52
2021/12/21 06:26:36;;;;;;;0.20;0.10;;;;;;;-4.45;98.92;101223.13;5038124;28;20466;-51
2021/12/21 06:29:02;;;;;;;0.20;0.10;;;;;;;-4.61;99.39;101225.00;5040007;28;20452;-52
2021/12/21 06:31:30;;;;;;;0.20;0.10;;;;;;;-4.68;99.34;101225.50;5049195;28;20464;-52
2021/12/21 06:33:57;;;;;;;0.20;0.10;;;;;;;-4.56;98.85;101228.69;5059415;28;20451;-52
2021/12/21 06:36:23;;;;;;;0.20;0.10;;;;;;;-4.43;98.90;101227.56;5042946;28;20553;-52
2021/12/21 06:38:51;;;;;;;0.20;0.10;;;;;;;-4.58;99.40;101225.13;5047999;28;20510;-51
2021/12/21 06:41:17;;;;;;;0.20;0.10;;;;;;;-4.59;98.76;101235.44;5049201;28;20899;-51
2021/12/21 06:43:44;;;;;;;0.20;0.10;;;;;;;-4.71;99.06;101227.97;5054421;28;20484;-52
2021/12/21 06:51:48;;;;;;;0.20;0.10;;;;;;;-4.61;98.78;101231.91;5039911;28;20455;-51
2021/12/21 06:54:14;;;;;;;0.20;0.10;;;;;;;-4.69;99.49;101233.22;5047338;28;20498;-52
2021/12/21 06:56:41;;;;;;;1.03;1.03;;;;;;;-4.77;98.68;101240.66;5054091;28;20522;-51
2021/12/21 06:59:07;;;;;;;0.20;0.10;;;;;;;-4.61;99.29;101242.28;5031883;28;20961;-52
2021/12/21 07:01:37;;;;;;;0.20;0.10;;;;;;;-4.69;98.10;101239.28;5052205;28;20461;-52
2021/12/21 07:04:07;;;;;;;0.20;0.10;;;;;;;-4.80;98.55;101244.00;5044369;28;20546;-52
2021/12/21 07:06:36;;;;;;;0.20;0.10;;;;;;;-4.78;98.50;101236.28;5048221;28;20471;-52
2021/12/21 07:09:13;;;;;;;0.20;0.10;;;;;;;-4.74;98.86;101237.31;5048666;28;20449;-51
2021/12/21 07:11:44;;;;;;;0.20;0.10;;;;;;;-4.77;98.52;101243.25;5056193;28;20500;-51
2021/12/21 07:19:44;;;;;;;0.20;0.10;;;;;;;-4.46;98.81;101245.59;5043031;28;20513;-52
2021/12/21 07:22:12;;;;;;;0.20;0.10;;;;;;;-4.50;98.22;101247.16;5051161;28;20450;-51
2021/12/21 07:24:39;;;;;;;0.20;0.10;;;;;;;-4.60;98.50;101246.63;5044684;28;20455;-52
2021/12/21 07:27:06;;;;;;;0.20;0.10;;;;;;;-4.74;98.83;101253.75;5056002;28;20465;-51
2021/12/21 07:29:33;;;;;;;0.20;0.20;;;;;;;-4.75;98.35;101245.91;5052093;28;20524;-51
2021/12/21 07:31:59;;;;;;;0.20;0.10;;;;;;;-4.87;98.59;101257.47;5038748;28;20512;-52
2021/12/21 07:34:26;;;;;;;0.20;0.10;;;;;;;-4.88;99.18;101257.38;5051780;28;20490;-51
2021/12/21 07:36:52;;;;;;;0.20;0.10;;;;;;;-4.86;99.17;101255.75;5045394;28;20561;-52
2021/12/21 07:39:19;;;;;;;0.20;0.10;;;;;;;-4.74;100.00;101256.34;5055536;28;20462;-51
2021/12/21 07:42:06;;;;;;;0.20;0.10;;;;;;;-4.67;99.71;101250.63;5064535;28;20501;-52
2021/12/21 07:44:33;;;;;;;0.20;0.20;;;;;;;-4.70;99.84;101244.41;5061867;28;20473;-52
2021/12/21 07:47:00;;;;;;;0.20;0.10;;;;;;;-4.73;99.90;101245.16;5066112;28;20459;-52
2021/12/21 07:49:27;;;;;;;0.20;0.10;;;;;;;-4.53;100.00;101249.56;5056184;28;20458;-52
2021/12/21 07:51:54;;;;;;;0.20;0.10;;;;;;;-4.66;100.00;101241.16;5070545;28;20457;-51
2021/12/21 07:54:21;;;;;;;0.20;0.10;;;;;;;-3.96;100.00;101242.72;5061840;28;20450;-52
2021/12/21 07:56:48;;;;;;;0.20;0.10;;;;;;;-3.04;100.00;101246.69;5065383;28;20991;-52
2021/12/21 07:59:15;;;;;;;0.20;0.10;;;;;;;-3.67;97.29;101240.53;5068546;28;20455;-52
2021/12/21 08:01:42;;;;;;;0.20;0.10;;;;;;;-3.85;96.84;101247.50;5064475;28;20489;-53
2021/12/21 08:04:09;;;;;;;0.20;0.10;;;;;;;-3.51;97.18;101247.28;5061521;28;20457;-53
2021/12/21 08:06:37;;;;;;;0.20;0.10;;;;;;;-4.07;97.80;101243.06;5065119;28;20520;-52
2021/12/21 08:09:05;;;;;;;0.20;0.10;;;;;;;-3.99;98.58;101252.94;5068459;28;20803;-52
2021/12/21 08:14:04;;;;;;;0.20;0.10;;;;;;;-3.90;98.42;101261.16;5063112;28;20484;-52
2021/12/21 08:16:32;;;;;;;0.20;0.10;;;;;;;-3.94;99.18;101261.84;5063717;28;20467;-52
2021/12/21 08:18:59;;;;;;;0.20;0.10;;;;;;;-3.95;99.37;101256.59;5068504;28;20443;-49
2021/12/21 08:21:27;;;;;;;0.20;0.10;;;;;;;-3.83;99.46;101257.16;5056510;28;20451;-48
2021/12/21 08:23:53;;;;;;;0.20;0.10;;;;;;;-3.91;99.75;101262.00;5069418;28;20932;-50
2021/12/21 08:26:20;;;;;;;0.20;0.10;;;;;;;-3.80;100.00;101256.41;5069061;28;20466;-50
2021/12/21 08:28:46;;;;;;;0.20;0.10;;;;;;;-3.61;100.00;101253.78;5061294;28;20450;-51
2021/12/21 08:31:13;;;;;;;0.20;0.10;;;;;;;-3.52;100.00;101256.78;5062026;28;20450;-52
2021/12/21 08:33:42;;;;;;;0.20;0.10;;;;;;;-3.39;100.00;101260.81;5067532;28;20857;-51
2021/12/21 08:36:10;;;;;;;0.30;0.20;;;;;;;-3.48;100.00;101256.09;5054807;28;20882;-51
2021/12/21 08:38:41;;;;;;;0.20;0.10;;;;;;;-3.33;100.00;101254.16;5047978;28;20486;-51
2021/12/21 08:41:07;;;;;;;0.30;0.20;;;;;;;-3.20;100.00;101249.47;5060775;28;20455;-51
2021/12/21 08:43:35;;;;;;;0.20;0.10;;;;;;;-3.19;100.00;101249.53;5067141;28;20486;-51
2021/12/21 08:46:03;;;;;;;0.20;0.10;;;;;;;-3.11;100.00;101249.88;5067702;28;20474;-49
2021/12/21 08:48:31;;;;;;;0.20;0.10;;;;;;;-3.06;100.00;101253.53;5062240;28;20446;-50
2021/12/21 08:51:00;;;;;;;0.20;0.10;;;;;;;-2.96;100.00;101250.50;5060368;28;20955;-49
2021/12/21 08:53:27;;;;;;;0.20;0.10;;;;;;;-2.93;100.00;101250.63;5065736;28;20450;-48
2021/12/21 08:55:54;;;;;;;0.20;0.10;;;;;;;-2.93;100.00;101248.03;5067728;28;20838;-49
2021/12/21 08:58:22;;;;;;;0.20;0.10;;;;;;;-2.70;100.00;101260.25;5061983;28;20543;-52
2021/12/21 09:00:49;;;;;;;0.20;0.10;;;;;;;-2.59;100.00;101257.19;5060363;28;20509;-49
2021/12/21 09:03:16;;;;;;;0.20;0.20;;;;;;;-2.52;100.00;101265.31;5065273;28;20450;-49
2021/12/21 09:05:43;;;;;;;0.63;0.63;;;;;;;-2.44;100.00;101268.22;5067250;28;20470;-50
2021/12/21 09:08:10;;;;;;;0.20;0.10;;;;;;;-2.32;100.00;101271.31;5053881;28;20447;-49
2021/12/21 09:10:39;;;;;;;0.30;0.30;;;;;;;-2.20;100.00;101270.88;5066631;28;20954;-49
2021/12/21 09:13:08;;;;;;;0.20;0.10;;;;;;;-2.13;100.00;101267.69;5062954;28;20483;-49
2021/12/21 09:15:35;;;;;;;0.20;0.10;;;;;;;-2.03;100.00;101267.22;5060288;28;20470;-50
2021/12/21 09:18:02;;;;;;;0.20;0.10;;;;;;;-2.05;100.00;101263.66;5063338;28;20540;-49
2021/12/21 09:20:30;;;;;;;0.57;0.57;;;;;;;-1.88;100.00;101262.56;5066837;28;20447;-50
2021/12/21 09:22:57;;;;;;;0.20;0.20;;;;;;;-1.89;100.00;101255.59;5064307;28;20472;-50
2021/12/21 09:25:25;;;;;;;0.20;0.10;;;;;;;-1.71;100.00;101264.91;5059798;28;20473;-50
2021/12/21 09:27:53;;;;;;;0.20;0.10;;;;;;;-1.54;100.00;101261.19;5062099;28;20497;-49
2021/12/21 09:30:22;;;;;;;0.63;0.63;;;;;;;-1.47;100.00;101259.69;5066951;28;20489;-50
2021/12/21 09:32:49;;;;;;;0.20;0.10;;;;;;;-1.44;100.00;101252.88;5066008;28;20531;-49
2021/12/21 09:35:15;;;;;;;0.20;0.10;;;;;;;-1.20;100.00;101263.28;5059951;28;20441;-49
2021/12/21 09:37:44;;;;;;;0.20;0.10;;;;;;;-0.99;100.00;101250.06;5060637;28;20487;-50
2021/12/21 09:40:15;;;;;;;0.20;0.10;;;;;;;-1.06;100.00;101254.19;5067940;28;20447;-49
2021/12/21 09:42:43;;;;;;;0.20;0.10;;;;;;;-0.91;100.00;101257.31;5068480;28;20449;-51
2021/12/21 09:45:10;;;;;;;0.20;0.10;;;;;;;-1.04;100.00;101249.03;5063117;28;20458;-50
2021/12/21 09:47:37;;;;;;;0.20;0.10;;;;;;;-0.99;100.00;101248.34;5062995;28;20450;-50
2021/12/21 09:50:06;;;;;;;0.70;0.70;;;;;;;-1.16;100.00;101246.88;5070307;28;20545;-50
2021/12/21 09:52:34;;;;;;;0.53;0.53;;;;;;;-1.02;100.00;101250.84;5066974;28;20472;-49
2021/12/21 09:55:05;;;;;;;0.20;0.10;;;;;;;-0.96;100.00;101252.75;5060566;28;20450;-49
2021/12/21 09:57:32;;;;;;;0.83;0.83;;;;;;;-0.89;100.00;101241.69;5060139;28;20505;-53
2021/12/21 09:59:59;;;;;;;0.20;0.10;;;;;;;-0.78;100.00;101252.50;5066144;28;20457;-53
2021/12/21 10:02:27;;;;;;;0.20;0.10;;;;;;;-0.54;100.00;101255.03;5070717;28;20445;-52
2021/12/21 10:05:00;;;;;;;0.20;0.10;;;;;;;-0.40;100.00;101244.16;5064446;28;20450;-53
2021/12/21 10:07:27;;;;;;;0.20;0.10;;;;;;;-0.33;100.00;101246.13;5062519;28;20435;-52
2021/12/21 10:10:08;;;;;;;0.20;0.10;;;;;;;-0.01;100.00;101243.56;5064325;28;20450;-53
2021/12/21 10:12:43;;;;;;;6.30;1.27;;;;;;;-0.05;100.00;101242.59;5066795;28;20451;-52
2021/12/21 10:15:21;;;;;;;0.20;0.10;;;;;;;0.24;100.00;101237.34;5065813;28;20442;-53
2021/12/21 10:17:57;;;;;;;5.70;1.43;;;;;;;-0.01;100.00;101239.22;5065367;28;20486;-52
2021/12/21 10:20:35;;;;;;;0.20;0.10;;;;;;;0.54;99.01;101235.56;5066076;28;20862;-53
2021/12/21 10:23:16;;;;;;;0.20;0.10;;;;;;;0.54;98.94;101229.44;5063882;28;20540;-53
2021/12/21 10:25:55;;;;;;;0.20;0.10;;;;;;;0.41;99.50;101225.66;5058881;28;20978;-52
2021/12/21 10:28:36;;;;;;;0.20;0.10;;;;;;;0.71;99.14;101228.19;5059005;28;20478;-53
2021/12/21 10:31:13;;;;;;;0.20;0.10;;;;;;;0.45;100.00;101231.84;5060673;28;20446;-53
2021/12/21 10:33:44;;;;;;;0.20;0.10;;;;;;;0.55;100.00;101239.09;5066118;28;20446;-53
2021/12/21 10:36:11;;;;;;;0.20;0.10;;;;;;;0.86;99.34;101239.06;5052791;28;20530;-52
2021/12/21 10:38:54;;;;;;;0.20;0.10;;;;;;;0.59;100.00;101235.72;5065447;28;20495;-52
2021/12/21 10:41:37;;;;;;;0.20;0.10;;;;;;;0.80;99.70;101231.03;5066311;28;20513;-53
2021/12/21 10:44:12;;;;;;;0.20;0.10;;;;;;;0.89;99.18;101225.16;5060638;28;20447;-53
2021/12/21 10:46:45;;;;;;;0.20;0.10;;;;;;;1.16;97.66;101220.63;5065768;28;20494;-53
2021/12/21 10:49:33;;;;;;;0.20;0.10;;;;;;;1.22;97.44;101217.25;5065375;28;20963;-53
2021/12/21 10:52:05;;;;;;;0.20;0.20;;;;;;;1.00;98.47;101212.34;5062960;28;20450;-53
2021/12/21 10:54:34;;;;;;;0.20;0.10;;;;;;;1.26;98.97;101211.25;5041330;28;20967;-53
2021/12/21 10:57:10;;;;;;;0.30;0.30;;;;;;;1.29;98.82;101208.72;5063771;28;20477;-53
2021/12/21 10:59:40;;;;;;;0.20;0.10;;;;;;;1.32;98.40;101207.88;5059055;28;20449;-53
2021/12/21 11:02:20;;;;;;;0.30;0.20;;;;;;;1.38;98.06;101210.66;5047058;28;20564;-52
2021/12/21 11:04:53;;;;;;;0.20;0.10;;;;;;;1.37;99.14;101222.88;5062346;28;20502;-53
2021/12/21 11:10:12;;;;;;;0.20;0.10;;;;;;;1.45;98.79;101210.81;5062324;28;20438;-54
2021/12/21 11:13:11;;;;;;;0.20;0.20;;;;;;;1.47;98.18;101208.25;5066719;28;20477;-53
2021/12/21 11:15:53;;;;;;;0.30;0.20;;;;;;;1.46;98.16;101212.59;5062578;28;20465;-53
2021/12/21 11:18:22;;;;;;;0.20;0.10;;;;;;;1.66;98.87;101205.22;5063143;28;20833;-53
2021/12/21 11:20:52;;;;;;;0.30;0.30;;;;;;;1.81;98.17;101203.78;5068709;28;20568;-53
2021/12/21 11:23:21;;;;;;;0.20;0.10;;;;;;;1.73;98.41;101200.97;5071774;28;20453;-53
2021/12/21 11:25:50;;;;;;;0.20;0.10;;;;;;;1.89;97.69;101197.81;5065844;28;21002;-53
2021/12/21 11:28:21;;;;;;;0.20;0.10;;;;;;;1.88;97.70;101185.56;5062655;28;20447;-53
2021/12/21 11:30:50;;;;;;;0.20;0.10;;;;;;;2.19;97.20;101188.81;5067190;28;20813;-53
2021/12/21 11:33:19;;;;;;;0.20;0.20;;;;;;;2.08;96.45;101184.25;5069696;28;20840;-53
2021/12/21 11:38:32;;;;;;;0.20;0.13;;;;;;;2.11;97.74;101177.31;5069048;28;20482;-53
2021/12/21 11:40:59;;;;;;;0.20;0.10;;;;;;;2.20;96.78;101172.25;5066738;28;20527;-53
2021/12/21 11:43:41;;;;;;;0.20;0.10;;;;;;;2.21;98.14;101180.13;5068710;28;20450;-53
2021/12/21 11:46:13;;;;;;;0.20;0.20;;;;;;;2.46;96.84;101172.72;5068952;28;20461;-53
2021/12/21 11:48:59;;;;;;;0.20;0.10;;;;;;;2.52;96.59;101162.34;5064710;28;20441;-53
2021/12/21 11:51:27;;;;;;;0.20;0.10;;;;;;;2.54;96.26;101172.00;5062762;28;20474;-53
2021/12/21 11:53:56;;;;;;;0.20;0.10;;;;;;;2.61;96.64;101158.16;5062998;28;20447;-53
2021/12/21 11:56:26;;;;;;;0.20;0.10;;;;;;;2.70;97.00;101167.03;5074969;28;20986;-53
2021/12/21 11:58:57;;;;;;;0.30;0.10;;;;;;;2.60;97.58;101163.34;5061759;28;20490;-53
2021/12/21 12:01:27;;;;;;;0.20;0.10;;;;;;;2.54;97.78;101163.25;5047517;28;20469;-53
2021/12/21 12:04:06;;;;;;;0.20;0.10;;;;;;;2.91;96.52;101163.03;5050562;28;20446;-53
2021/12/21 12:07:12;;;;;;;0.40;0.40;;;;;;;2.80;96.48;101161.09;5065696;28;20498;-53
2021/12/21 12:09:38;;;;;;;0.20;0.20;;;;;;;2.72;97.03;101165.31;5052007;28;20454;-53
2021/12/21 12:12:09;;;;;;;0.20;0.10;;;;;;;2.74;96.79;101159.25;5061982;28;20494;-53
2021/12/21 12:14:37;;;;;;;0.20;0.10;;;;;;;2.87;96.15;101158.56;5066030;28;20581;-53
2021/12/21 12:17:17;;;;;;;0.20;0.10;;;;;;;3.00;96.43;101169.28;5068453;28;20535;-53
2021/12/21 12:19:55;;;;;;;0.20;0.10;;;;;;;2.80;97.73;101156.72;5066064;28;20490;-53
2021/12/21 12:22:40;;;;;;;0.20;0.10;;;;;;;2.88;95.08;101154.25;5060523;28;20520;-53
2021/12/21 12:25:19;;;;;;;0.20;0.10;;;;;;;2.83;93.59;101153.25;5061222;28;20446;-53
2021/12/21 12:27:49;;;;;;;0.20;0.20;;;;;;;2.70;92.44;101148.66;5064188;28;20825;-52
2021/12/21 12:30:27;;;;;;;0.20;0.10;;;;;;;2.75;92.15;101142.66;5067868;28;20446;-53
2021/12/21 12:32:55;;;;;;;0.20;0.10;;;;;;;2.75;92.61;101137.41;5067220;28;20445;-52
2021/12/21 12:35:25;;;;;;;0.20;0.10;;;;;;;2.80;92.69;101145.34;5054842;28;20524;-53
2021/12/21 12:37:58;;;;;;;0.20;0.10;;;;;;;2.86;92.39;101143.69;5067708;28;20477;-53
2021/12/21 12:40:30;;;;;;;0.20;0.10;;;;;;;2.77;91.88;101146.19;5063489;28;20515;-53
2021/12/21 12:43:08;;;;;;;0.20;0.10;;;;;;;2.94;93.56;101141.19;5069389;28;20946;-53
2021/12/21 12:45:45;;;;;;;0.20;0.10;;;;;;;2.91;92.50;101135.91;5065422;28;20465;-53